SWR49 KSFO-LSZH
Flight info
| Callsign | SWR49 |
|---|---|
| Flight time | N/A |
| Altitude | 33000 |
| Route | SNTNA2 DEDHD DCT LKV DCT MLP J540 YQL Q896 BORIX DCT 55N103W/N0489F350 59N095W 62N085W 65N070W/M082F350 DCT EPMAN DCT 66N050W/M083F370 66N040W 65N030W 63N020W DCT ATSIX/N0476F370 DCT AKIVO DCT NEXUS DCT TOPPA DCT SUTAL DCT GTQ DCT BAMEV DCT BLM |
| Aircraft | B77W/H-SDE1E2E3FGHIJ2J3J4J5M1RWXY/LB1D1 |
Departure
| Time | 2026-05-03 22:30 |
|---|---|
| Airport | San Francisco International Airport (KSFO) |
Arrival
| Time | N/A |
|---|---|
| Airport | Zürich Airport (LSZH) |
| Time | Latitude | Longitude | Altitude | Speed | Heading |
|---|---|---|---|---|---|
| 2026-05-03 22:04 | 37.61932 | -122.39329 | 38 ft | 0 kts | 208° |
| 2026-05-03 22:19 | 37.61940 | -122.39324 | 38 ft | 2 kts | 200° |
| 2026-05-03 22:19 | 37.61954 | -122.39321 | 38 ft | 2 kts | 175° |
| 2026-05-03 22:19 | 37.61969 | -122.39325 | 38 ft | 2 kts | 155° |
| 2026-05-03 22:20 | 37.61982 | -122.39335 | 38 ft | 2 kts | 135° |
| 2026-05-03 22:20 | 37.61991 | -122.39350 | 38 ft | 2 kts | 115° |
| 2026-05-03 22:20 | 37.61995 | -122.39368 | 38 ft | 2 kts | 95° |
| 2026-05-03 22:20 | 37.61995 | -122.39387 | 38 ft | 1 kts | 76° |
| 2026-05-03 22:21 | 37.61993 | -122.39394 | 38 ft | 0 kts | 72° |
| 2026-05-03 22:22 | 37.61993 | -122.39393 | 38 ft | 0 kts | 72° |
| 2026-05-03 22:22 | 37.62035 | -122.39337 | 38 ft | 18 kts | 32° |
| 2026-05-03 22:23 | 37.62156 | -122.39256 | 37 ft | 18 kts | 26° |
| 2026-05-03 22:23 | 37.62268 | -122.39182 | 36 ft | 17 kts | 36° |
| 2026-05-03 22:23 | 37.62321 | -122.39065 | 35 ft | 13 kts | 89° |
| 2026-05-03 22:23 | 37.62292 | -122.38969 | 36 ft | 10 kts | 125° |
| 2026-05-03 22:24 | 37.62255 | -122.38890 | 37 ft | 14 kts | 118° |
| 2026-05-03 22:24 | 37.62203 | -122.38765 | 37 ft | 20 kts | 118° |
| 2026-05-03 22:24 | 37.62118 | -122.38560 | 38 ft | 31 kts | 119° |
| 2026-05-03 22:24 | 37.62006 | -122.38296 | 38 ft | 33 kts | 117° |
| 2026-05-03 22:25 | 37.61904 | -122.38047 | 38 ft | 30 kts | 117° |
| 2026-05-03 22:25 | 37.61815 | -122.37817 | 34 ft | 28 kts | 112° |
| 2026-05-03 22:25 | 37.61745 | -122.37585 | 28 ft | 28 kts | 115° |
| 2026-05-03 22:25 | 37.61657 | -122.37367 | 22 ft | 27 kts | 117° |
| 2026-05-03 22:26 | 37.61573 | -122.37157 | 19 ft | 26 kts | 117° |
| 2026-05-03 22:26 | 37.61488 | -122.36965 | 18 ft | 23 kts | 120° |
| 2026-05-03 22:26 | 37.61389 | -122.36819 | 18 ft | 20 kts | 129° |
| 2026-05-03 22:26 | 37.61321 | -122.36674 | 18 ft | 17 kts | 117° |
| 2026-05-03 22:27 | 37.61266 | -122.36544 | 18 ft | 16 kts | 119° |
| 2026-05-03 22:27 | 37.61183 | -122.36359 | 15 ft | 25 kts | 115° |
| 2026-05-03 22:27 | 37.61118 | -122.36190 | 15 ft | 19 kts | 119° |
| 2026-05-03 22:27 | 37.61056 | -122.36053 | 15 ft | 9 kts | 119° |
| 2026-05-03 22:28 | 37.61052 | -122.35981 | 15 ft | 7 kts | 72° |
| 2026-05-03 22:28 | 37.61079 | -122.35931 | 15 ft | 6 kts | 40° |
| 2026-05-03 22:28 | 37.61125 | -122.35892 | 15 ft | 8 kts | 30° |
| 2026-05-03 22:28 | 37.61177 | -122.35875 | 15 ft | 6 kts | 337° |
| 2026-05-03 22:29 | 37.61203 | -122.35909 | 15 ft | 4 kts | 304° |
| 2026-05-03 22:29 | 37.61219 | -122.35944 | 15 ft | 4 kts | 299° |
| 2026-05-03 22:29 | 37.61222 | -122.35952 | 15 ft | 0 kts | 298° |
| 2026-05-03 22:29 | 37.61259 | -122.36041 | 15 ft | 37 kts | 297° |
| 2026-05-03 22:30 | 37.61487 | -122.36583 | 18 ft | 101 kts | 298° |
| 2026-05-03 22:30 | 37.61912 | -122.37605 | 31 ft | 157 kts | 298° |
| 2026-05-03 22:30 | 37.62493 | -122.38979 | 272 ft | 186 kts | 295° |
| 2026-05-03 22:30 | 37.63072 | -122.40414 | 973 ft | 187 kts | 295° |
| 2026-05-03 22:31 | 37.63680 | -122.41865 | 1530 ft | 192 kts | 296° |
| 2026-05-03 22:31 | 37.64325 | -122.43392 | 1924 ft | 204 kts | 297° |
| 2026-05-03 22:31 | 37.65038 | -122.44992 | 2346 ft | 215 kts | 298° |
| 2026-05-03 22:31 | 37.65792 | -122.46664 | 2825 ft | 225 kts | 298° |
| 2026-05-03 22:32 | 37.66589 | -122.48478 | 3100 ft | 247 kts | 297° |
| 2026-05-03 22:32 | 37.67464 | -122.50425 | 3593 ft | 260 kts | 306° |
| 2026-05-03 22:32 | 37.68785 | -122.51981 | 4237 ft | 268 kts | 330° |
| 2026-05-03 22:32 | 37.70570 | -122.52768 | 4722 ft | 279 kts | 356° |
| 2026-05-03 22:33 | 37.72518 | -122.52736 | 5378 ft | 284 kts | 4° |
| 2026-05-03 22:33 | 37.74464 | -122.52662 | 6238 ft | 282 kts | 1° |
| 2026-05-03 22:33 | 37.76427 | -122.52695 | 6987 ft | 284 kts | 0° |
| 2026-05-03 22:33 | 37.78410 | -122.52598 | 7605 ft | 287 kts | 16° |
| 2026-05-03 22:34 | 37.80215 | -122.51567 | 8163 ft | 286 kts | 42° |
| 2026-05-03 22:34 | 37.81486 | -122.49685 | 8796 ft | 283 kts | 64° |
| 2026-05-03 22:34 | 37.82358 | -122.47470 | 9551 ft | 281 kts | 69° |
| 2026-05-03 22:34 | 37.83164 | -122.45245 | 10235 ft | 284 kts | 65° |
| 2026-05-03 22:35 | 37.84293 | -122.43070 | 10580 ft | 303 kts | 53° |
| 2026-05-03 22:35 | 37.85857 | -122.41188 | 10881 ft | 323 kts | 39° |
| 2026-05-03 22:35 | 37.87912 | -122.39809 | 11198 ft | 344 kts | 21° |
| 2026-05-03 22:35 | 37.90209 | -122.38808 | 11565 ft | 358 kts | 24° |
| 2026-05-03 22:36 | 37.92560 | -122.37544 | 11968 ft | 372 kts | 27° |
| 2026-05-03 22:36 | 37.94931 | -122.36119 | 12448 ft | 383 kts | 29° |
| 2026-05-03 22:36 | 37.97353 | -122.34610 | 13130 ft | 389 kts | 29° |
| 2026-05-03 22:36 | 37.99778 | -122.33079 | 13883 ft | 392 kts | 30° |
| 2026-05-03 22:37 | 38.02244 | -122.31512 | 14618 ft | 396 kts | 30° |
| 2026-05-03 22:37 | 38.04728 | -122.29924 | 15368 ft | 400 kts | 30° |
| 2026-05-03 22:37 | 38.07222 | -122.28324 | 16103 ft | 403 kts | 30° |
| 2026-05-03 22:37 | 38.09740 | -122.26705 | 16789 ft | 407 kts | 30° |
| 2026-05-03 22:38 | 38.12264 | -122.25078 | 17452 ft | 411 kts | 31° |
| 2026-05-03 22:38 | 38.14826 | -122.23424 | 18098 ft | 415 kts | 31° |
| 2026-05-03 22:38 | 38.17420 | -122.21748 | 18765 ft | 419 kts | 31° |
| 2026-05-03 22:38 | 38.20001 | -122.20077 | 19479 ft | 420 kts | 31° |
| 2026-05-03 22:39 | 38.22627 | -122.18376 | 20193 ft | 422 kts | 31° |
| 2026-05-03 22:39 | 38.25251 | -122.16674 | 20880 ft | 423 kts | 31° |
| 2026-05-03 22:39 | 38.27864 | -122.14978 | 21551 ft | 425 kts | 31° |
| 2026-05-03 22:39 | 38.30496 | -122.13268 | 22215 ft | 426 kts | 32° |
| 2026-05-03 22:40 | 38.33185 | -122.11592 | 22872 ft | 430 kts | 27° |
| 2026-05-03 22:40 | 38.36004 | -122.10368 | 23460 ft | 436 kts | 21° |
| 2026-05-03 22:40 | 38.38946 | -122.09296 | 24026 ft | 439 kts | 20° |
| 2026-05-03 22:40 | 38.41861 | -122.08244 | 24621 ft | 440 kts | 21° |
| 2026-05-03 22:41 | 38.44843 | -122.07167 | 25200 ft | 442 kts | 21° |
| 2026-05-03 22:41 | 38.47811 | -122.06091 | 25715 ft | 445 kts | 21° |
| 2026-05-03 22:41 | 38.50797 | -122.05006 | 26211 ft | 448 kts | 21° |
| 2026-05-03 22:41 | 38.53770 | -122.03925 | 26703 ft | 450 kts | 21° |
| 2026-05-03 22:42 | 38.56815 | -122.02816 | 27236 ft | 452 kts | 21° |
| 2026-05-03 22:42 | 38.59857 | -122.01707 | 27780 ft | 453 kts | 21° |
| 2026-05-03 22:42 | 38.62912 | -122.00592 | 28280 ft | 455 kts | 21° |
| 2026-05-03 22:42 | 38.65976 | -121.99471 | 28680 ft | 459 kts | 21° |
| 2026-05-03 22:43 | 38.69028 | -121.98354 | 29130 ft | 461 kts | 21° |
| 2026-05-03 22:43 | 38.72145 | -121.97213 | 29677 ft | 461 kts | 21° |
| 2026-05-03 22:43 | 38.75193 | -121.96098 | 30344 ft | 458 kts | 21° |
| 2026-05-03 22:43 | 38.78227 | -121.94985 | 31006 ft | 454 kts | 21° |
| 2026-05-03 22:44 | 38.81273 | -121.93867 | 31425 ft | 455 kts | 21° |
| 2026-05-03 22:44 | 38.84351 | -121.92734 | 31745 ft | 458 kts | 21° |
| 2026-05-03 22:44 | 38.87428 | -121.91601 | 32064 ft | 460 kts | 21° |
| 2026-05-03 22:44 | 38.90551 | -121.90451 | 32405 ft | 460 kts | 21° |
| 2026-05-03 22:45 | 38.93667 | -121.89302 | 32680 ft | 459 kts | 21° |
| 2026-05-03 22:45 | 38.96806 | -121.88145 | 32865 ft | 458 kts | 21° |
| 2026-05-03 22:45 | 38.99888 | -121.87006 | 32876 ft | 459 kts | 21° |
| 2026-05-03 22:46 | 39.06063 | -121.84723 | 32872 ft | 457 kts | 21° |
| 2026-05-03 22:46 | 39.12152 | -121.82467 | 32879 ft | 458 kts | 21° |
| 2026-05-03 22:47 | 39.18333 | -121.80172 | 32876 ft | 458 kts | 21° |
| 2026-05-03 22:47 | 39.24488 | -121.77883 | 32883 ft | 459 kts | 21° |
| 2026-05-03 22:48 | 39.30683 | -121.75575 | 32880 ft | 459 kts | 20° |
| 2026-05-03 22:48 | 39.36879 | -121.73263 | 32888 ft | 461 kts | 21° |
| 2026-05-03 22:49 | 39.43039 | -121.70959 | 32898 ft | 462 kts | 20° |
| 2026-05-03 22:49 | 39.49218 | -121.68645 | 32910 ft | 462 kts | 20° |
| 2026-05-03 22:50 | 39.55398 | -121.66325 | 32901 ft | 461 kts | 20° |
| 2026-05-03 22:50 | 39.61629 | -121.63982 | 32911 ft | 464 kts | 20° |
| 2026-05-03 22:51 | 39.67873 | -121.61629 | 32920 ft | 466 kts | 20° |
| 2026-05-03 22:51 | 39.74144 | -121.59264 | 32933 ft | 464 kts | 20° |
| 2026-05-03 22:52 | 39.80361 | -121.56912 | 32921 ft | 466 kts | 20° |
| 2026-05-03 22:52 | 39.86595 | -121.54551 | 32955 ft | 465 kts | 20° |
| 2026-05-03 22:53 | 39.92828 | -121.52184 | 32958 ft | 466 kts | 20° |
| 2026-05-03 22:53 | 39.99113 | -121.49794 | 32969 ft | 468 kts | 20° |
| 2026-05-03 22:54 | 40.05384 | -121.47405 | 32982 ft | 469 kts | 20° |
| 2026-05-03 22:54 | 40.11665 | -121.45008 | 32970 ft | 466 kts | 20° |
| 2026-05-03 22:55 | 40.17907 | -121.42619 | 32984 ft | 467 kts | 20° |
| 2026-05-03 22:55 | 40.24143 | -121.40230 | 32978 ft | 469 kts | 20° |
| 2026-05-03 22:56 | 40.30362 | -121.37843 | 32982 ft | 468 kts | 20° |
| 2026-05-03 22:56 | 40.36631 | -121.35431 | 32993 ft | 468 kts | 20° |
| 2026-05-03 22:57 | 40.42905 | -121.33012 | 33018 ft | 469 kts | 20° |
| 2026-05-03 22:57 | 40.49157 | -121.30598 | 33031 ft | 468 kts | 20° |
| 2026-05-03 22:58 | 40.55425 | -121.28172 | 33030 ft | 467 kts | 20° |
| 2026-05-03 22:58 | 40.61696 | -121.25741 | 33027 ft | 468 kts | 20° |
| 2026-05-03 22:59 | 40.67938 | -121.23316 | 33018 ft | 468 kts | 20° |
| 2026-05-03 22:59 | 40.74176 | -121.20888 | 33019 ft | 468 kts | 20° |
| 2026-05-03 23:00 | 40.80435 | -121.18447 | 33021 ft | 468 kts | 20° |
| 2026-05-03 23:00 | 40.86671 | -121.16010 | 33012 ft | 467 kts | 20° |
| 2026-05-03 23:01 | 40.92924 | -121.13562 | 33014 ft | 470 kts | 20° |
| 2026-05-03 23:01 | 40.99191 | -121.11104 | 33005 ft | 468 kts | 20° |
| 2026-05-03 23:02 | 41.05441 | -121.08647 | 33009 ft | 469 kts | 20° |
| 2026-05-03 23:02 | 41.11675 | -121.06191 | 33010 ft | 468 kts | 19° |
| 2026-05-03 23:03 | 41.17935 | -121.03721 | 33022 ft | 468 kts | 19° |
| 2026-05-03 23:03 | 41.24183 | -121.01251 | 33021 ft | 467 kts | 20° |
| 2026-05-03 23:04 | 41.30445 | -120.98769 | 33024 ft | 468 kts | 19° |
| 2026-05-03 23:04 | 41.36714 | -120.96280 | 33034 ft | 468 kts | 19° |
| 2026-05-03 23:05 | 41.42995 | -120.93781 | 33028 ft | 468 kts | 20° |
| 2026-05-03 23:05 | 41.49251 | -120.91287 | 33034 ft | 468 kts | 19° |
| 2026-05-03 23:06 | 41.55515 | -120.88786 | 33032 ft | 468 kts | 19° |
| 2026-05-03 23:06 | 41.61726 | -120.86300 | 33034 ft | 468 kts | 19° |
| 2026-05-03 23:07 | 41.67988 | -120.83788 | 33035 ft | 468 kts | 19° |
| 2026-05-03 23:07 | 41.74250 | -120.81272 | 33027 ft | 467 kts | 19° |
| 2026-05-03 23:08 | 41.80516 | -120.78748 | 33034 ft | 469 kts | 19° |
| 2026-05-03 23:08 | 41.86820 | -120.76205 | 33036 ft | 468 kts | 19° |
| 2026-05-03 23:09 | 41.93078 | -120.73674 | 33039 ft | 468 kts | 19° |
| 2026-05-03 23:09 | 41.99309 | -120.71150 | 33036 ft | 468 kts | 19° |
| 2026-05-03 23:10 | 42.05613 | -120.68591 | 33045 ft | 467 kts | 19° |
| 2026-05-03 23:10 | 42.11807 | -120.66071 | 33045 ft | 467 kts | 18° |
| 2026-05-03 23:11 | 42.18067 | -120.63519 | 33037 ft | 468 kts | 18° |
| 2026-05-03 23:11 | 42.24308 | -120.60969 | 33044 ft | 467 kts | 18° |
| 2026-05-03 23:12 | 42.30551 | -120.58413 | 33044 ft | 468 kts | 18° |
| 2026-05-03 23:12 | 42.36777 | -120.55859 | 33051 ft | 466 kts | 18° |
| 2026-05-03 23:13 | 42.42950 | -120.53322 | 33059 ft | 467 kts | 18° |
| 2026-05-03 23:13 | 42.49165 | -120.50413 | 33063 ft | 464 kts | 27° |
| 2026-05-03 23:14 | 42.54701 | -120.45887 | 33063 ft | 466 kts | 33° |
| 2026-05-03 23:14 | 42.60152 | -120.41090 | 33059 ft | 465 kts | 33° |
| 2026-05-03 23:15 | 42.65537 | -120.36332 | 33046 ft | 465 kts | 33° |
| 2026-05-03 23:15 | 42.70938 | -120.31542 | 33047 ft | 465 kts | 34° |
| 2026-05-03 23:16 | 42.76407 | -120.26681 | 33044 ft | 464 kts | 34° |
| 2026-05-03 23:16 | 42.81785 | -120.21887 | 33044 ft | 465 kts | 34° |
| 2026-05-03 23:17 | 42.87212 | -120.17039 | 33043 ft | 466 kts | 34° |
| 2026-05-03 23:17 | 42.92654 | -120.12167 | 33039 ft | 467 kts | 34° |
| 2026-05-03 23:18 | 42.98065 | -120.07312 | 33027 ft | 467 kts | 33° |
| 2026-05-03 23:18 | 43.03477 | -120.02446 | 33023 ft | 467 kts | 33° |
| 2026-05-03 23:19 | 43.08942 | -119.97521 | 33020 ft | 467 kts | 33° |
| 2026-05-03 23:19 | 43.14347 | -119.92640 | 33031 ft | 466 kts | 33° |
| 2026-05-03 23:20 | 43.19728 | -119.87769 | 33031 ft | 465 kts | 33° |
| 2026-05-03 23:20 | 43.25179 | -119.82825 | 33035 ft | 466 kts | 33° |
| 2026-05-03 23:21 | 43.30602 | -119.77896 | 33034 ft | 465 kts | 33° |
| 2026-05-03 23:21 | 43.36003 | -119.72976 | 33034 ft | 465 kts | 33° |
| 2026-05-03 23:22 | 43.44069 | -119.65608 | 33037 ft | 465 kts | 33° |
| 2026-05-03 23:22 | 43.49461 | -119.60670 | 33039 ft | 465 kts | 33° |
| 2026-05-03 23:23 | 43.54851 | -119.55722 | 33035 ft | 464 kts | 33° |
| 2026-05-03 23:23 | 43.60254 | -119.50752 | 33038 ft | 464 kts | 33° |
| 2026-05-03 23:24 | 43.65635 | -119.45791 | 33044 ft | 466 kts | 33° |
| 2026-05-03 23:24 | 43.71023 | -119.40813 | 33046 ft | 465 kts | 33° |
| 2026-05-03 23:25 | 43.76390 | -119.35843 | 33055 ft | 465 kts | 33° |
| 2026-05-03 23:25 | 43.81791 | -119.30831 | 33056 ft | 465 kts | 33° |
| 2026-05-03 23:26 | 43.87135 | -119.25860 | 33057 ft | 465 kts | 33° |
| 2026-05-03 23:26 | 43.92484 | -119.20873 | 33065 ft | 464 kts | 33° |
| 2026-05-03 23:27 | 43.97873 | -119.15840 | 33076 ft | 465 kts | 33° |
| 2026-05-03 23:27 | 44.03269 | -119.10787 | 33077 ft | 465 kts | 33° |
| 2026-05-03 23:28 | 44.08609 | -119.05776 | 33079 ft | 465 kts | 33° |
| 2026-05-03 23:28 | 44.14001 | -119.00706 | 33088 ft | 462 kts | 33° |
| 2026-05-03 23:29 | 44.19384 | -118.95632 | 33084 ft | 463 kts | 33° |
| 2026-05-03 23:29 | 44.24696 | -118.90614 | 33077 ft | 461 kts | 33° |
| 2026-05-03 23:30 | 44.29985 | -118.85606 | 33071 ft | 461 kts | 33° |
| 2026-05-03 23:30 | 44.35309 | -118.80555 | 33069 ft | 459 kts | 33° |
| 2026-05-03 23:31 | 44.40590 | -118.75532 | 33065 ft | 458 kts | 33° |
| 2026-05-03 23:31 | 44.45899 | -118.70472 | 33060 ft | 459 kts | 33° |
| 2026-05-03 23:32 | 44.51126 | -118.65479 | 33058 ft | 457 kts | 33° |
| 2026-05-03 23:32 | 44.56379 | -118.60451 | 33062 ft | 458 kts | 33° |
| 2026-05-03 23:33 | 44.61605 | -118.55436 | 33062 ft | 455 kts | 34° |
| 2026-05-03 23:33 | 44.66785 | -118.50455 | 33063 ft | 454 kts | 34° |
| 2026-05-03 23:34 | 44.72029 | -118.45401 | 33055 ft | 454 kts | 34° |
| 2026-05-03 23:34 | 44.77214 | -118.40393 | 33052 ft | 453 kts | 34° |
| 2026-05-03 23:35 | 44.82410 | -118.35363 | 33053 ft | 453 kts | 34° |
| 2026-05-03 23:35 | 44.87570 | -118.30357 | 33059 ft | 453 kts | 35° |
| 2026-05-03 23:36 | 44.92765 | -118.25305 | 33061 ft | 451 kts | 35° |
| 2026-05-03 23:36 | 44.97916 | -118.20286 | 33058 ft | 452 kts | 35° |
| 2026-05-03 23:37 | 45.03045 | -118.15276 | 33051 ft | 452 kts | 35° |
| 2026-05-03 23:37 | 45.08284 | -118.10148 | 33025 ft | 452 kts | 35° |
| 2026-05-03 23:38 | 45.13439 | -118.05090 | 33010 ft | 452 kts | 35° |
| 2026-05-03 23:38 | 45.18593 | -118.00022 | 32994 ft | 452 kts | 35° |
| 2026-05-03 23:39 | 45.23782 | -117.94909 | 32995 ft | 452 kts | 35° |
| 2026-05-03 23:39 | 45.28952 | -117.89802 | 33000 ft | 453 kts | 34° |
| 2026-05-03 23:40 | 45.34093 | -117.84713 | 33012 ft | 452 kts | 34° |
| 2026-05-03 23:40 | 45.39259 | -117.79586 | 33025 ft | 453 kts | 34° |
| 2026-05-03 23:41 | 45.44424 | -117.74451 | 33039 ft | 453 kts | 34° |
| 2026-05-03 23:41 | 45.49594 | -117.69297 | 33045 ft | 451 kts | 34° |
| 2026-05-03 23:42 | 45.54736 | -117.64161 | 33043 ft | 453 kts | 34° |
| 2026-05-03 23:42 | 45.59916 | -117.58974 | 33039 ft | 453 kts | 34° |
| 2026-05-03 23:43 | 45.65079 | -117.53793 | 33036 ft | 453 kts | 34° |
| 2026-05-03 23:43 | 45.70221 | -117.48619 | 33033 ft | 454 kts | 34° |
| 2026-05-03 23:44 | 45.75391 | -117.43407 | 33026 ft | 453 kts | 34° |
| 2026-05-03 23:44 | 45.80609 | -117.38133 | 33022 ft | 453 kts | 34° |
| 2026-05-03 23:45 | 45.85734 | -117.32942 | 33015 ft | 454 kts | 35° |
| 2026-05-03 23:45 | 45.90911 | -117.27687 | 33003 ft | 454 kts | 35° |
| 2026-05-03 23:46 | 45.96036 | -117.22472 | 32994 ft | 454 kts | 34° |
| 2026-05-03 23:46 | 46.01202 | -117.17202 | 32990 ft | 455 kts | 34° |